createdAt,value
2023-02-18T00:01:42.929Z,7.34
2023-02-18T00:04:11.266Z,7.31
2023-02-18T00:06:41.023Z,7.35
2023-02-18T00:09:09.395Z,7.42
2023-02-18T00:11:39.430Z,7.46
2023-02-18T00:14:09.804Z,7.47
2023-02-18T00:16:38.366Z,7.34
2023-02-18T00:19:09.502Z,7.39
2023-02-18T00:21:37.977Z,7.40
2023-02-18T00:24:08.853Z,7.43
2023-02-18T00:26:37.593Z,7.37
2023-02-18T00:29:05.606Z,7.44
2023-02-18T00:31:36.206Z,7.51
2023-02-18T00:34:06.104Z,7.54
2023-02-18T00:36:34.630Z,7.58
2023-02-18T00:39:04.816Z,7.56
2023-02-18T00:41:35.534Z,7.67
2023-02-18T00:44:03.836Z,7.72
2023-02-18T00:46:33.075Z,7.67
2023-02-18T00:49:01.131Z,7.63
2023-02-18T00:51:29.766Z,7.63
2023-02-18T00:53:58.341Z,7.67
2023-02-18T00:56:26.493Z,7.69
2023-02-18T00:58:56.039Z,7.72
2023-02-18T01:01:24.586Z,7.61
2023-02-18T01:03:52.816Z,7.66
2023-02-18T01:06:22.521Z,7.71
2023-02-18T01:08:50.725Z,7.60
2023-02-18T01:11:19.204Z,7.42
2023-02-18T01:13:47.477Z,7.27
2023-02-18T01:16:17.155Z,7.15
2023-02-18T01:18:45.340Z,7.12
2023-02-18T01:21:13.830Z,7.11
2023-02-18T01:23:43.132Z,7.00
2023-02-18T01:26:13.027Z,7.09
2023-02-18T01:28:41.696Z,7.13
2023-02-18T01:31:11.628Z,7.24
2023-02-18T01:33:41.785Z,7.15
2023-02-18T01:36:11.713Z,7.05
2023-02-18T01:38:40.505Z,7.09
2023-02-18T01:41:09.140Z,7.10
2023-02-18T01:43:37.923Z,7.13
2023-02-18T01:46:13.765Z,7.07
2023-02-18T01:48:47.765Z,7.02
2023-02-18T01:51:20.183Z,6.97
2023-02-18T01:53:53.915Z,6.83
2023-02-18T01:56:26.967Z,6.65
2023-02-18T01:58:58.304Z,6.51
2023-02-18T02:01:28.062Z,6.50
2023-02-18T02:03:57.732Z,6.62
2023-02-18T02:06:28.763Z,6.47
2023-02-18T02:09:00.491Z,6.38
2023-02-18T02:11:42.820Z,6.48
2023-02-18T02:14:35.734Z,6.60
2023-02-18T02:17:07.298Z,6.54
2023-02-18T02:20:10.471Z,6.42
2023-02-18T02:23:08.579Z,6.50
2023-02-18T02:25:59.340Z,6.58
2023-02-18T02:28:54.788Z,6.61
2023-02-18T02:31:48.945Z,6.59
2023-02-18T02:34:56.442Z,6.56
2023-02-18T02:37:36.520Z,6.55
2023-02-18T02:40:20.838Z,6.51
2023-02-18T02:43:04.881Z,6.43
2023-02-18T02:45:43.281Z,6.40
2023-02-18T02:48:21.773Z,6.37
2023-02-18T02:50:56.244Z,6.43
2023-02-18T02:53:29.388Z,6.34
2023-02-18T02:55:57.507Z,6.36
2023-02-18T02:58:26.296Z,6.50
2023-02-18T03:01:13.619Z,6.54
2023-02-18T03:04:01.329Z,6.60
2023-02-18T03:06:41.266Z,6.63
2023-02-18T03:09:17.954Z,6.68
2023-02-18T03:11:55.161Z,6.73
2023-02-18T03:14:30.162Z,6.72
2023-02-18T03:17:04.136Z,6.65
2023-02-18T03:19:37.178Z,6.71
2023-02-18T03:22:10.586Z,6.72
2023-02-18T03:24:43.045Z,6.68
2023-02-18T03:27:16.101Z,6.77
2023-02-18T03:29:47.649Z,6.75
2023-02-18T03:32:20.761Z,6.79
2023-02-18T03:34:54.949Z,6.79
2023-02-18T03:37:23.629Z,6.81
2023-02-18T03:39:59.030Z,6.85
2023-02-18T03:42:28.809Z,6.88
2023-02-18T03:44:57.412Z,6.97
2023-02-18T03:47:26.408Z,6.99
2023-02-18T03:49:54.548Z,7.14
2023-02-18T03:52:22.820Z,7.17
2023-02-18T03:54:52.303Z,7.38
2023-02-18T03:57:20.433Z,7.50
2023-02-18T03:59:48.493Z,7.57
2023-02-18T04:02:16.548Z,7.55
2023-02-18T04:04:44.647Z,7.56
2023-02-18T04:07:12.657Z,7.66
2023-02-18T04:09:40.970Z,7.63
2023-02-18T04:12:10.545Z,7.58
2023-02-18T04:14:38.628Z,7.52
2023-02-18T04:17:07.796Z,7.52
2023-02-18T04:19:35.970Z,7.48
2023-02-18T04:22:04.223Z,7.53
2023-02-18T04:24:32.900Z,7.53
2023-02-18T04:27:01.008Z,7.65
2023-02-18T04:29:30.912Z,7.79
2023-02-18T04:31:59.196Z,7.86
2023-02-18T04:34:27.528Z,7.82
2023-02-18T04:36:55.622Z,7.96
2023-02-18T04:39:23.721Z,8.01
2023-02-18T04:41:51.837Z,8.01
2023-02-18T04:44:20.000Z,8.02
2023-02-18T04:46:49.710Z,8.05
2023-02-18T04:49:17.891Z,8.11
2023-02-18T04:51:46.392Z,8.10
2023-02-18T04:54:14.546Z,8.09
2023-02-18T04:56:42.667Z,8.08
2023-02-18T04:59:11.687Z,8.03
2023-02-18T05:01:39.819Z,8.07
2023-02-18T05:04:09.449Z,8.09
2023-02-18T05:06:39.604Z,8.07
2023-02-18T05:09:10.249Z,8.24
2023-02-18T05:11:39.219Z,8.28
2023-02-18T05:14:07.947Z,8.24
2023-02-18T05:16:36.111Z,8.24
2023-02-18T05:19:04.360Z,8.29
2023-02-18T05:21:34.468Z,8.29
2023-02-18T05:24:02.793Z,8.30
2023-02-18T05:26:31.396Z,8.29
2023-02-18T05:28:59.694Z,8.30
2023-02-18T05:31:28.336Z,8.32
2023-02-18T05:33:56.706Z,8.37
2023-02-18T05:36:24.997Z,8.35
2023-02-18T05:38:55.590Z,8.46
2023-02-18T05:41:24.332Z,8.52
2023-02-18T05:44:09.810Z,8.69
2023-02-18T05:46:38.093Z,8.64
2023-02-18T05:49:06.175Z,8.58
2023-02-18T05:51:34.211Z,8.59
2023-02-18T05:54:03.700Z,8.61
2023-02-18T05:56:32.022Z,8.59
2023-02-18T05:59:00.024Z,8.60
2023-02-18T06:01:28.130Z,8.77
2023-02-18T06:03:56.582Z,8.82
2023-02-18T06:06:25.181Z,8.84
2023-02-18T06:08:53.408Z,8.87
2023-02-18T06:11:23.065Z,8.99
2023-02-18T06:13:51.116Z,9.06
2023-02-18T06:16:19.378Z,9.10
2023-02-18T06:18:47.559Z,9.17
2023-02-18T06:21:15.684Z,9.22
2023-02-18T06:23:43.811Z,9.29
2023-02-18T06:26:11.950Z,9.35
2023-02-18T06:28:41.517Z,9.47
2023-02-18T06:31:09.802Z,9.58
2023-02-18T06:33:38.482Z,9.66
2023-02-18T06:36:11.959Z,9.70
2023-02-18T06:38:41.158Z,9.70
2023-02-18T06:41:09.319Z,9.79
2023-02-18T06:43:37.871Z,9.82
2023-02-18T06:48:53.256Z,9.96
2023-02-18T06:51:21.546Z,9.99
2023-02-18T06:53:49.816Z,10.11
2023-02-18T06:56:18.446Z,10.19
2023-02-18T06:58:46.752Z,10.27
2023-02-18T07:01:16.424Z,10.32
2023-02-18T07:03:44.647Z,10.39
2023-02-18T07:06:12.804Z,10.53
2023-02-18T07:08:40.946Z,10.62
2023-02-18T07:11:09.303Z,10.74
2023-02-18T07:13:37.744Z,10.84
2023-02-18T07:16:08.072Z,11.00
2023-02-18T07:18:38.208Z,11.14
2023-02-18T07:21:06.609Z,11.39
2023-02-18T07:23:34.697Z,11.52
2023-02-18T07:26:09.177Z,11.64
2023-02-18T07:28:37.890Z,11.72
2023-02-18T07:31:07.774Z,11.82
2023-02-18T07:33:43.907Z,11.93
2023-02-18T07:36:12.112Z,12.04
2023-02-18T07:38:41.992Z,12.19
2023-02-18T07:41:19.774Z,12.28
2023-02-18T07:43:48.518Z,12.36
2023-02-18T07:46:17.633Z,12.45
2023-02-18T07:48:52.933Z,12.41
2023-02-18T07:51:21.593Z,12.44
2023-02-18T07:53:50.611Z,12.43
2023-02-18T07:56:19.030Z,12.46
2023-02-18T07:58:47.344Z,12.43
2023-02-18T08:01:17.189Z,12.45
2023-02-18T08:03:47.213Z,12.46
2023-02-18T08:06:26.552Z,12.65
2023-02-18T08:08:54.672Z,12.82
2023-02-18T08:11:22.997Z,12.98
2023-02-18T08:13:51.112Z,13.11
2023-02-18T08:16:20.471Z,13.27
2023-02-18T08:18:51.493Z,13.29
2023-02-18T08:21:21.368Z,13.46
2023-02-18T08:23:50.651Z,13.53
2023-02-18T08:26:19.049Z,13.63
2023-02-18T08:28:48.829Z,13.59
2023-02-18T08:31:21.758Z,13.60
2023-02-18T08:33:51.369Z,13.66
2023-02-18T08:36:20.224Z,13.70
2023-02-18T08:38:48.481Z,13.81
2023-02-18T08:41:18.768Z,14.07
2023-02-18T08:43:47.008Z,14.27
2023-02-18T08:46:25.382Z,14.43
2023-02-18T08:49:05.056Z,14.43
2023-02-18T08:51:33.207Z,14.59
2023-02-18T08:54:01.686Z,14.70
2023-02-18T08:56:31.916Z,14.89
2023-02-18T08:59:00.385Z,14.94
2023-02-18T09:01:28.790Z,14.98
2023-02-18T09:03:57.059Z,15.18
2023-02-18T09:06:27.055Z,15.40
2023-02-18T09:08:55.643Z,15.55
2023-02-18T09:11:23.829Z,15.58
2023-02-18T09:13:51.961Z,15.66
2023-02-18T09:16:20.844Z,15.61
2023-02-18T09:18:50.432Z,15.68
2023-02-18T09:21:21.134Z,15.69
2023-02-18T09:23:50.671Z,15.74
2023-02-18T09:26:23.200Z,15.85
2023-02-18T09:28:53.056Z,16.10
2023-02-18T09:31:23.439Z,16.12
2023-02-18T09:33:55.062Z,16.17
2023-02-18T09:36:24.064Z,16.11
2023-02-18T09:38:54.949Z,16.11
2023-02-18T09:41:31.741Z,16.05
2023-02-18T09:44:03.350Z,16.00
2023-02-18T09:46:34.551Z,16.10
2023-02-18T09:49:08.582Z,16.19
2023-02-18T09:51:37.084Z,16.43
2023-02-18T09:54:06.779Z,16.51
2023-02-18T09:56:40.458Z,16.66
2023-02-18T09:59:15.945Z,16.78
2023-02-18T10:01:45.727Z,16.95
2023-02-18T10:04:19.432Z,17.08
2023-02-18T10:06:49.354Z,17.18
2023-02-18T10:09:22.546Z,17.28
2023-02-18T10:11:53.259Z,17.27
2023-02-18T10:14:21.962Z,17.52
2023-02-18T10:16:52.269Z,17.74
2023-02-18T10:19:30.976Z,17.77
2023-02-18T10:22:00.481Z,17.63
2023-02-18T10:24:33.764Z,17.74
2023-02-18T10:27:05.489Z,17.86
2023-02-18T10:29:33.597Z,17.95
2023-02-18T10:32:08.994Z,18.00
2023-02-18T10:34:48.708Z,18.03
2023-02-18T10:37:44.950Z,17.94
2023-02-18T10:40:24.523Z,17.94
2023-02-18T10:43:05.382Z,18.04
2023-02-18T10:45:41.510Z,18.17
2023-02-18T10:48:24.679Z,18.23
2023-02-18T10:50:52.987Z,18.26
2023-02-18T10:53:31.783Z,18.20
2023-02-18T10:56:01.801Z,18.23
2023-02-18T10:58:34.121Z,18.38
2023-02-18T11:01:05.616Z,18.38
2023-02-18T11:03:45.530Z,18.44
2023-02-18T11:06:24.324Z,18.50
2023-02-18T11:08:56.001Z,18.79
2023-02-18T11:11:32.110Z,18.80
2023-02-18T11:14:02.350Z,18.98
2023-02-18T11:16:39.920Z,18.96
2023-02-18T11:19:34.118Z,19.02
2023-02-18T11:22:10.232Z,18.94
2023-02-18T11:24:41.724Z,18.78
2023-02-18T11:27:15.199Z,18.67
2023-02-18T11:29:43.943Z,18.72
2023-02-18T11:32:13.902Z,18.78
2023-02-18T11:34:45.657Z,18.87
2023-02-18T11:37:20.381Z,19.02
2023-02-18T11:39:51.856Z,19.04
2023-02-18T11:42:24.489Z,18.96
2023-02-18T11:44:55.538Z,18.95
2023-02-18T11:47:29.429Z,18.89
2023-02-18T11:50:03.692Z,18.91
2023-02-18T11:52:37.384Z,18.96
2023-02-18T11:55:08.499Z,18.96
2023-02-18T11:57:41.130Z,18.89
2023-02-18T12:00:23.556Z,18.93
2023-02-18T12:02:55.444Z,19.03
2023-02-18T12:05:30.337Z,19.23
2023-02-18T12:08:04.542Z,19.28
2023-02-18T12:10:36.272Z,19.38
2023-02-18T12:13:12.102Z,19.43
2023-02-18T12:15:53.656Z,19.53
2023-02-18T12:18:56.680Z,19.49
2023-02-18T12:21:53.707Z,19.57
2023-02-18T12:24:42.965Z,19.66
2023-02-18T12:27:20.702Z,19.76
2023-02-18T12:30:37.931Z,20.04
2023-02-18T12:33:26.923Z,20.18
2023-02-18T12:36:11.309Z,20.07
2023-02-18T12:39:13.653Z,19.88
2023-02-18T12:41:55.666Z,19.82
2023-02-18T12:44:45.336Z,19.90
2023-02-18T12:47:49.093Z,20.05
2023-02-18T12:50:46.923Z,20.15
2023-02-18T12:53:41.299Z,20.01
2023-02-18T12:56:49.001Z,19.97
2023-02-18T13:02:00.194Z,19.88
2023-02-18T13:04:41.808Z,19.88
2023-02-18T13:07:42.174Z,19.82
2023-02-18T13:10:38.308Z,19.86
2023-02-18T13:13:13.607Z,19.89
2023-02-18T13:15:45.303Z,19.76
2023-02-18T13:18:17.673Z,19.85
2023-02-18T13:20:52.249Z,19.77
2023-02-18T13:23:24.867Z,19.80
2023-02-18T13:26:00.755Z,19.91
2023-02-18T13:28:36.511Z,19.94
2023-02-18T13:31:20.988Z,19.94
2023-02-18T13:33:58.745Z,19.93
2023-02-18T13:36:38.054Z,19.80
2023-02-18T13:39:11.652Z,19.67
2023-02-18T13:41:41.773Z,19.61
2023-02-18T13:44:32.048Z,19.70
2023-02-18T13:47:01.065Z,19.78
2023-02-18T13:49:35.829Z,19.77
2023-02-18T13:52:05.593Z,19.75
2023-02-18T13:54:45.364Z,19.73
2023-02-18T13:57:18.045Z,19.66
2023-02-18T13:59:50.703Z,19.56
2023-02-18T14:02:33.752Z,19.46
2023-02-18T14:05:22.721Z,19.47
2023-02-18T14:07:52.659Z,19.32
2023-02-18T14:10:43.293Z,19.30
2023-02-18T14:13:26.164Z,19.28
2023-02-18T14:16:01.483Z,19.22
2023-02-18T14:18:37.100Z,19.13
2023-02-18T14:21:23.767Z,19.18
2023-02-18T14:24:06.034Z,19.31
2023-02-18T14:26:39.304Z,19.25
2023-02-18T14:29:13.982Z,19.18
2023-02-18T14:32:05.057Z,19.14
2023-02-18T14:35:06.715Z,19.12
2023-02-18T14:38:12.769Z,19.16
2023-02-18T14:41:00.023Z,19.14
2023-02-18T14:43:55.136Z,19.08
2023-02-18T14:46:35.118Z,19.01
2023-02-18T14:49:32.727Z,18.93
2023-02-18T14:52:01.362Z,19.01
2023-02-18T14:54:32.459Z,18.94
2023-02-18T14:57:03.370Z,18.88
2023-02-18T14:59:37.291Z,18.92
2023-02-18T15:02:05.476Z,18.81
2023-02-18T15:04:33.546Z,18.77
2023-02-18T15:07:04.774Z,18.76
2023-02-18T15:09:33.215Z,18.77
2023-02-18T15:12:05.750Z,18.74
2023-02-18T15:14:39.550Z,18.67
2023-02-18T15:17:14.944Z,18.53
2023-02-18T15:19:44.688Z,18.55
2023-02-18T15:22:19.003Z,18.39
2023-02-18T15:24:48.135Z,18.40
2023-02-18T15:27:18.325Z,18.48
2023-02-18T15:29:51.245Z,18.46
2023-02-18T15:32:21.167Z,18.38
2023-02-18T15:34:52.616Z,18.26
2023-02-18T15:37:21.080Z,18.15
2023-02-18T15:39:49.811Z,18.10
2023-02-18T15:42:29.242Z,18.06
2023-02-18T15:45:04.467Z,17.98
2023-02-18T15:47:34.247Z,17.83
2023-02-18T15:50:04.724Z,17.76
2023-02-18T15:52:36.025Z,17.61
2023-02-18T15:55:08.232Z,17.52
2023-02-18T15:57:38.310Z,17.41
2023-02-18T16:00:17.707Z,17.33
2023-02-18T16:02:56.016Z,17.21
2023-02-18T16:05:28.887Z,17.12
2023-02-18T16:08:04.100Z,17.06
2023-02-18T16:10:48.146Z,17.06
2023-02-18T16:13:18.867Z,16.97
2023-02-18T16:15:51.294Z,16.86
2023-02-18T16:18:30.553Z,16.67
2023-02-18T16:21:02.726Z,16.64
2023-02-18T16:23:43.609Z,16.52
2023-02-18T16:26:24.574Z,16.27
2023-02-18T16:28:54.348Z,16.11
2023-02-18T16:31:24.661Z,15.94
2023-02-18T16:33:53.905Z,15.93
2023-02-18T16:36:25.376Z,15.88
2023-02-18T16:38:53.607Z,15.97
2023-02-18T16:41:21.765Z,15.99
2023-02-18T16:43:50.571Z,15.87
2023-02-18T16:46:22.674Z,15.66
2023-02-18T16:48:55.863Z,15.56
2023-02-18T16:51:27.804Z,15.56
2023-02-18T16:53:57.489Z,15.57
2023-02-18T16:56:28.928Z,15.66
2023-02-18T16:58:57.519Z,15.65
2023-02-18T17:01:30.032Z,15.61
2023-02-18T17:04:01.578Z,15.56
2023-02-18T17:06:31.651Z,15.50
2023-02-18T17:09:00.753Z,15.42
2023-02-18T17:11:32.682Z,15.43
2023-02-18T17:14:05.583Z,15.33
2023-02-18T17:16:34.062Z,15.36
2023-02-18T17:19:03.638Z,15.39
2023-02-18T17:21:31.788Z,15.33
2023-02-18T17:24:00.109Z,15.32
2023-02-18T17:26:29.604Z,15.28
2023-02-18T17:29:02.341Z,15.27
2023-02-18T17:31:32.795Z,15.27
2023-02-18T17:34:03.109Z,15.26
2023-02-18T17:36:32.875Z,15.29
2023-02-18T17:39:02.816Z,15.27
2023-02-18T17:41:31.099Z,15.28
2023-02-18T17:43:59.295Z,15.32
2023-02-18T17:46:27.447Z,15.34
2023-02-18T17:48:57.960Z,15.28
2023-02-18T17:51:29.672Z,15.28
2023-02-18T17:53:59.424Z,15.27
2023-02-18T17:56:27.836Z,15.24
2023-02-18T17:58:56.962Z,15.25
2023-02-18T18:01:25.425Z,15.18
2023-02-18T18:03:53.488Z,15.24
2023-02-18T18:06:22.766Z,15.24
2023-02-18T18:08:51.722Z,15.09
2023-02-18T18:11:24.296Z,14.87
2023-02-18T18:13:53.818Z,14.68
2023-02-18T18:16:23.194Z,14.50
2023-02-18T18:18:52.116Z,14.47
2023-02-18T18:21:23.869Z,14.28
2023-02-18T18:23:52.454Z,14.33
2023-02-18T18:26:22.330Z,14.47
2023-02-18T18:28:50.859Z,14.50
2023-02-18T18:31:21.409Z,14.34
2023-02-18T18:33:53.593Z,14.19
2023-02-18T18:36:24.454Z,13.97
2023-02-18T18:38:54.934Z,13.85
2023-02-18T18:41:24.682Z,13.81
2023-02-18T18:43:52.895Z,13.77
2023-02-18T18:46:21.963Z,13.70
2023-02-18T18:48:50.413Z,13.59
2023-02-18T18:51:22.746Z,13.55
2023-02-18T18:53:51.251Z,13.45
2023-02-18T18:56:20.031Z,13.35
2023-02-18T18:58:51.016Z,13.25
2023-02-18T19:01:23.880Z,13.26
2023-02-18T19:03:52.675Z,13.25
2023-02-18T19:06:22.832Z,13.15
2023-02-18T19:08:52.338Z,13.15
2023-02-18T19:11:21.200Z,13.05
2023-02-18T19:13:50.944Z,13.16
2023-02-18T19:16:21.322Z,13.07
2023-02-18T19:18:52.240Z,12.97
2023-02-18T19:21:21.100Z,12.97
2023-02-18T19:23:49.373Z,13.05
2023-02-18T19:26:18.165Z,12.88
2023-02-18T19:28:46.734Z,12.84
2023-02-18T19:31:17.002Z,12.80
2023-02-18T19:33:46.966Z,12.72
2023-02-18T19:36:16.976Z,12.68
2023-02-18T19:38:47.082Z,12.70
2023-02-18T19:41:17.927Z,12.84
2023-02-18T19:43:47.481Z,12.78
2023-02-18T19:46:19.100Z,12.76
2023-02-18T19:48:51.037Z,12.75
2023-02-18T19:51:19.744Z,12.55
2023-02-18T19:53:47.760Z,12.41
2023-02-18T19:56:15.920Z,12.38
2023-02-18T19:58:44.760Z,12.40
2023-02-18T20:01:14.089Z,12.47
2023-02-18T20:03:44.827Z,12.63
2023-02-18T20:06:17.343Z,12.65
2023-02-18T20:08:46.656Z,12.51
2023-02-18T20:11:15.474Z,12.65
2023-02-18T20:13:43.607Z,12.59
2023-02-18T20:16:13.315Z,12.63
2023-02-18T20:18:41.497Z,12.57
2023-02-18T20:21:13.080Z,12.68
2023-02-18T20:23:42.085Z,12.65
2023-02-18T20:26:10.922Z,12.77
2023-02-18T20:28:39.716Z,12.59
2023-02-18T20:31:08.953Z,12.52
2023-02-18T20:33:37.287Z,12.48
2023-02-18T20:36:08.503Z,12.61
2023-02-18T20:38:39.001Z,12.55
2023-02-18T20:41:08.864Z,12.55
2023-02-18T20:43:37.500Z,12.47
2023-02-18T20:46:07.807Z,12.44
2023-02-18T20:48:37.165Z,12.34
2023-02-18T20:51:06.136Z,12.28
2023-02-18T20:53:35.918Z,12.21
2023-02-18T20:56:06.409Z,12.16
2023-02-18T20:58:35.289Z,12.14
2023-02-18T21:01:05.916Z,12.18
2023-02-18T21:03:34.836Z,12.11
2023-02-18T21:06:05.326Z,12.01
2023-02-18T21:08:34.136Z,12.03
2023-02-18T21:11:06.429Z,11.88
2023-02-18T21:13:35.730Z,11.73
2023-02-18T21:16:05.148Z,11.64
2023-02-18T21:18:33.746Z,11.72
2023-02-18T21:21:04.557Z,11.89
2023-02-18T21:23:33.013Z,11.85
2023-02-18T21:26:08.150Z,11.77
2023-02-18T21:28:36.208Z,11.70
2023-02-18T21:31:05.183Z,11.78
2023-02-18T21:33:33.178Z,11.75
2023-02-18T21:36:03.244Z,11.78
2023-02-18T21:38:31.538Z,11.69
2023-02-18T21:41:00.095Z,11.65
2023-02-18T21:43:29.546Z,11.63
2023-02-18T21:46:07.007Z,11.66
2023-02-18T21:48:52.329Z,11.69
2023-02-18T21:51:40.538Z,11.65
2023-02-18T21:54:08.730Z,11.76
2023-02-18T21:56:37.711Z,11.82
2023-02-18T21:59:07.229Z,11.82
2023-02-18T22:01:35.355Z,11.78
2023-02-18T22:04:03.449Z,11.88
2023-02-18T22:06:32.040Z,11.94
2023-02-18T22:09:01.867Z,11.98
2023-02-18T22:11:30.373Z,11.87
2023-02-18T22:13:59.086Z,12.01
2023-02-18T22:16:29.256Z,12.07
2023-02-18T22:18:58.044Z,12.09
2023-02-18T22:21:27.162Z,12.03
2023-02-18T22:23:55.885Z,12.03
2023-02-18T22:26:24.143Z,12.08
2023-02-18T22:28:54.561Z,12.12
2023-02-18T22:31:23.892Z,12.04
2023-02-18T22:33:55.248Z,12.05
2023-02-18T22:36:25.157Z,12.08
2023-02-18T22:38:53.299Z,12.04
2023-02-18T22:41:24.324Z,12.02
2023-02-18T22:43:55.152Z,12.00
2023-02-18T22:46:23.237Z,11.98
2023-02-18T22:48:53.518Z,11.95
2023-02-18T22:51:25.218Z,11.92
2023-02-18T22:53:55.967Z,11.86
2023-02-18T22:56:25.771Z,11.87
2023-02-18T22:58:56.118Z,11.84
2023-02-18T23:01:26.157Z,11.79
2023-02-18T23:03:59.748Z,11.64
2023-02-18T23:06:27.977Z,11.64
2023-02-18T23:08:56.600Z,11.56
2023-02-18T23:11:24.873Z,11.52
2023-02-18T23:14:09.190Z,11.49
2023-02-18T23:19:37.769Z,11.41
2023-02-18T23:22:06.501Z,11.32
2023-02-18T23:24:35.588Z,11.26
2023-02-18T23:27:04.845Z,11.30
2023-02-18T23:29:33.148Z,11.29
2023-02-18T23:32:01.233Z,11.21
2023-02-18T23:34:29.758Z,11.21
2023-02-18T23:36:59.591Z,11.16
2023-02-18T23:39:29.630Z,11.32
2023-02-18T23:41:58.142Z,11.38
2023-02-18T23:44:28.018Z,11.33
2023-02-18T23:46:57.049Z,11.40
2023-02-18T23:49:26.819Z,11.48
2023-02-18T23:51:57.330Z,11.51
2023-02-18T23:54:26.766Z,11.50
2023-02-18T23:56:54.813Z,11.58
2023-02-18T23:59:22.914Z,11.63
